createdAt,value
2023-04-22T00:01:03.115Z,100624.56
2023-04-22T00:06:07.202Z,100626.38
2023-04-22T00:11:08.999Z,100619.16
2023-04-22T00:16:08.599Z,100619.91
2023-04-22T00:21:09.266Z,100619.78
2023-04-22T00:26:11.523Z,100617.97
2023-04-22T00:31:11.210Z,100620.63
2023-04-22T00:36:11.910Z,100630.72
2023-04-22T00:41:11.965Z,100629.16
2023-04-22T00:46:13.155Z,100636.88
2023-04-22T00:51:13.857Z,100642.56
2023-04-22T00:56:16.029Z,100638.00
2023-04-22T01:01:16.017Z,100637.44
2023-04-22T01:06:16.753Z,100619.44
2023-04-22T01:11:15.929Z,100631.34
2023-04-22T01:16:16.304Z,100641.03
2023-04-22T01:21:40.939Z,100638.38
2023-04-22T01:26:42.905Z,100642.09
2023-04-22T01:31:42.755Z,100633.41
2023-04-22T01:36:41.912Z,100633.28
2023-04-22T01:41:45.064Z,100627.97
2023-04-22T01:46:44.099Z,100630.13
2023-04-22T01:51:44.709Z,100623.38
2023-04-22T01:56:52.189Z,100615.84
2023-04-22T02:01:52.964Z,100603.78
2023-04-22T02:06:52.805Z,100610.16
2023-04-22T02:11:53.386Z,100611.72
2023-04-22T02:16:54.614Z,100603.16
2023-04-22T02:21:53.803Z,100608.06
2023-04-22T02:26:54.450Z,100600.97
2023-04-22T02:31:53.758Z,100598.53
2023-04-22T02:36:53.138Z,100610.00
2023-04-22T02:41:55.026Z,100596.75
2023-04-22T02:46:54.182Z,100599.94
2023-04-22T02:51:54.380Z,100602.94
2023-04-22T02:56:55.230Z,100608.09
2023-04-22T03:01:54.359Z,100602.31
2023-04-22T03:07:08.113Z,100607.81
2023-04-22T03:12:08.844Z,100603.28
2023-04-22T03:17:09.343Z,100607.72
2023-04-22T03:22:08.750Z,100604.22
2023-04-22T03:27:09.591Z,100611.53
2023-04-22T03:32:10.405Z,100610.81
2023-04-22T03:37:10.652Z,100620.78
2023-04-22T03:42:12.270Z,100626.19
2023-04-22T03:47:14.945Z,100636.91
2023-04-22T03:52:20.672Z,100639.66
2023-04-22T03:57:30.117Z,100663.16
2023-04-22T04:02:33.952Z,100666.28
2023-04-22T04:07:33.904Z,100680.47
2023-04-22T04:12:34.596Z,100697.19
2023-04-22T04:17:34.045Z,100693.44
2023-04-22T04:22:35.438Z,100697.47
2023-04-22T04:27:39.677Z,100700.22
2023-04-22T04:32:45.926Z,100712.94
2023-04-22T04:37:47.934Z,100719.91
2023-04-22T04:42:49.496Z,100735.63
2023-04-22T04:47:55.006Z,100738.81
2023-04-22T04:52:59.607Z,100749.41
2023-04-22T04:58:10.276Z,100752.06
2023-04-22T05:03:09.716Z,100755.09
2023-04-22T05:08:09.150Z,100761.47
2023-04-22T05:13:20.625Z,100752.81
2023-04-22T05:18:22.977Z,100763.50
2023-04-22T05:23:23.206Z,100773.28
2023-04-22T05:28:27.181Z,100778.47
2023-04-22T05:33:29.755Z,100785.66
2023-04-22T05:38:37.302Z,100780.47
2023-04-22T05:43:40.355Z,100781.16
2023-04-22T05:48:46.078Z,100776.13
2023-04-22T05:54:07.568Z,100779.41
2023-04-22T06:04:26.207Z,100783.00
2023-04-22T06:09:30.716Z,100799.63
2023-04-22T06:14:33.043Z,100799.13
2023-04-22T06:19:38.178Z,100819.53
2023-04-22T06:24:43.395Z,100829.38
2023-04-22T06:29:49.651Z,100831.47
2023-04-22T06:34:49.179Z,100848.91
2023-04-22T06:39:48.695Z,100839.09
2023-04-22T06:45:19.810Z,100852.09
2023-04-22T06:50:37.732Z,100851.53
2023-04-22T06:55:40.024Z,100850.19
2023-04-22T07:00:43.743Z,100854.31
2023-04-22T07:05:45.743Z,100860.56
2023-04-22T07:10:45.778Z,100865.16
2023-04-22T07:16:14.396Z,100859.81
2023-04-22T07:21:15.409Z,100864.97
2023-04-22T07:26:16.799Z,100862.72
2023-04-22T07:31:17.253Z,100869.53
2023-04-22T07:36:16.994Z,100874.94
2023-04-22T07:41:16.572Z,100879.53
2023-04-22T07:46:25.317Z,100882.44
2023-04-22T07:51:33.393Z,100871.31
2023-04-22T07:56:44.137Z,100878.84
2023-04-22T08:01:56.181Z,100883.06
2023-04-22T08:06:58.515Z,100881.38
2023-04-22T08:12:05.639Z,100888.16
2023-04-22T08:17:07.716Z,100894.28
2023-04-22T08:22:07.318Z,100893.34
2023-04-22T08:27:06.374Z,100895.09
2023-04-22T08:32:10.333Z,100892.06
2023-04-22T08:37:12.131Z,100897.88
2023-04-22T08:42:11.681Z,100900.00
2023-04-22T08:47:17.006Z,100904.53
2023-04-22T08:52:38.027Z,100908.63
2023-04-22T08:57:52.619Z,100910.72
2023-04-22T09:02:56.758Z,100907.09
2023-04-22T09:08:07.105Z,100907.69
2023-04-22T09:13:11.977Z,100906.75
2023-04-22T09:18:22.975Z,100895.41
2023-04-22T09:23:24.218Z,100900.56
2023-04-22T09:28:24.298Z,100889.69
2023-04-22T09:33:30.430Z,100890.91
2023-04-22T09:38:33.628Z,100891.00
2023-04-22T09:43:37.429Z,100875.09
2023-04-22T09:48:44.188Z,100879.78
2023-04-22T09:53:45.621Z,100876.94
2023-04-22T09:58:46.231Z,100869.16
2023-04-22T10:03:52.007Z,100866.78
2023-04-22T10:08:55.344Z,100851.94
2023-04-22T10:13:54.544Z,100857.03
2023-04-22T10:18:57.248Z,100843.53
2023-04-22T10:24:00.717Z,100829.66
2023-04-22T10:29:03.027Z,100826.53
2023-04-22T10:34:16.683Z,100822.63
2023-04-22T10:39:21.372Z,100822.94
2023-04-22T10:44:22.014Z,100815.59
2023-04-22T10:49:25.120Z,100830.19
2023-04-22T10:55:01.851Z,100815.88
2023-04-22T11:00:01.980Z,100819.44
2023-04-22T11:05:25.979Z,100806.88
2023-04-22T11:10:43.813Z,100818.13
2023-04-22T11:15:44.807Z,100798.00
2023-04-22T11:20:45.330Z,100806.66
2023-04-22T11:25:44.305Z,100807.63
2023-04-22T11:30:43.263Z,100810.72
2023-04-22T11:35:42.833Z,100802.47
2023-04-22T11:40:46.768Z,100794.22
2023-04-22T11:45:46.594Z,100792.78
2023-04-22T11:50:45.625Z,100796.56
2023-04-22T11:55:48.194Z,100783.28
2023-04-22T12:00:48.730Z,100792.56
2023-04-22T12:05:53.781Z,100795.28
2023-04-22T12:10:56.021Z,100789.25
2023-04-22T12:15:56.529Z,100785.69
2023-04-22T12:20:55.264Z,100792.38
2023-04-22T12:25:55.487Z,100791.09
2023-04-22T12:30:54.327Z,100782.25
2023-04-22T12:35:53.678Z,100782.03
2023-04-22T12:40:52.355Z,100778.81
2023-04-22T12:45:52.916Z,100775.50
2023-04-22T12:50:51.805Z,100767.41
2023-04-22T12:55:50.750Z,100766.19
2023-04-22T13:00:49.586Z,100765.38
2023-04-22T13:05:49.803Z,100768.38
2023-04-22T13:10:49.336Z,100766.47
2023-04-22T13:15:50.120Z,100762.50
2023-04-22T13:20:51.357Z,100772.50
2023-04-22T13:25:50.526Z,100772.88
2023-04-22T13:30:49.317Z,100766.34
2023-04-22T13:35:48.059Z,100770.13
2023-04-22T13:40:48.302Z,100776.94
2023-04-22T13:45:48.401Z,100772.41
2023-04-22T13:50:47.236Z,100784.66
2023-04-22T13:55:46.045Z,100784.44
2023-04-22T14:00:46.380Z,100779.56
2023-04-22T14:05:45.422Z,100778.34
2023-04-22T14:10:44.309Z,100772.72
2023-04-22T14:15:42.977Z,100775.25
2023-04-22T14:20:45.200Z,100787.31
2023-04-22T14:25:52.821Z,100783.16
2023-04-22T14:30:51.795Z,100796.63
2023-04-22T14:35:52.324Z,100796.78
2023-04-22T14:41:03.293Z,100790.41
2023-04-22T14:46:04.882Z,100797.34
2023-04-22T14:51:08.052Z,100798.28
2023-04-22T14:56:12.246Z,100804.75
2023-04-22T15:01:15.927Z,100806.16
2023-04-22T15:06:19.170Z,100798.19
2023-04-22T15:11:18.523Z,100789.97
2023-04-22T15:16:18.078Z,100783.56
2023-04-22T15:21:18.677Z,100782.84
2023-04-22T15:26:23.650Z,100783.09
2023-04-22T15:31:22.966Z,100785.47
2023-04-22T15:36:23.408Z,100784.50
2023-04-22T15:41:25.309Z,100800.38
2023-04-22T15:46:24.923Z,100798.16
2023-04-22T15:51:25.354Z,100810.56
2023-04-22T15:56:24.834Z,100823.78
2023-04-22T16:01:24.085Z,100829.91
2023-04-22T16:06:24.241Z,100822.09
2023-04-22T16:11:23.108Z,100826.25
2023-04-22T16:16:23.082Z,100840.25
2023-04-22T16:21:21.949Z,100832.97
2023-04-22T16:26:22.296Z,100848.34
2023-04-22T16:31:23.054Z,100855.38
2023-04-22T16:36:22.579Z,100857.22
2023-04-22T16:41:23.010Z,100867.56
2023-04-22T16:46:21.919Z,100868.19
2023-04-22T16:51:20.760Z,100871.34
2023-04-22T16:56:19.572Z,100872.03
2023-04-22T17:01:19.746Z,100870.38
2023-04-22T17:06:18.772Z,100884.25
2023-04-22T17:11:18.356Z,100881.44
2023-04-22T17:16:17.280Z,100894.16
2023-04-22T17:21:19.994Z,100900.53
2023-04-22T17:26:18.898Z,100905.44
2023-04-22T17:31:18.096Z,100911.28
2023-04-22T17:36:19.911Z,100916.25
2023-04-22T17:41:20.356Z,100909.28
2023-04-22T17:46:21.767Z,100920.16
2023-04-22T17:51:20.728Z,100921.91
2023-04-22T17:56:21.008Z,100931.44
2023-04-22T18:01:20.108Z,100942.22
2023-04-22T18:06:19.018Z,100956.38
2023-04-22T18:11:21.515Z,100953.72
2023-04-22T18:16:25.766Z,100962.44
2023-04-22T18:21:30.393Z,100961.63
2023-04-22T18:26:36.087Z,100974.84
2023-04-22T18:31:35.595Z,100972.00
2023-04-22T18:36:35.641Z,100969.09
2023-04-22T18:41:40.057Z,100972.25
2023-04-22T18:46:45.593Z,100979.78
2023-04-22T18:51:49.116Z,100978.31
2023-04-22T18:56:49.704Z,100978.00
2023-04-22T19:01:53.840Z,100977.19
2023-04-22T19:06:52.800Z,100980.59
2023-04-22T19:11:55.372Z,100978.81
2023-04-22T19:16:54.094Z,100970.38
2023-04-22T19:21:53.116Z,100976.91
2023-04-22T19:26:54.962Z,100972.28
2023-04-22T19:31:54.200Z,100975.09
2023-04-22T19:36:54.315Z,100969.75
2023-04-22T19:41:54.742Z,100975.56
2023-04-22T19:46:53.753Z,100974.25
2023-04-22T19:51:53.927Z,100975.00
2023-04-22T19:56:54.333Z,100977.28
2023-04-22T20:01:56.044Z,100986.72
2023-04-22T20:07:02.690Z,100984.88
2023-04-22T20:12:06.686Z,100989.88
2023-04-22T20:17:06.700Z,100991.19
2023-04-22T20:22:11.604Z,100993.59
2023-04-22T20:27:15.207Z,100985.47
2023-04-22T20:32:15.070Z,100983.59
2023-04-22T20:37:22.657Z,100984.03
2023-04-22T20:42:27.291Z,100994.81
2023-04-22T20:47:26.267Z,100993.94
2023-04-22T20:52:36.373Z,100998.56
2023-04-22T20:57:37.775Z,101001.22
2023-04-22T21:02:41.236Z,100995.91
2023-04-22T21:07:52.178Z,101005.78
2023-04-22T21:13:00.454Z,101011.63
2023-04-22T21:18:03.648Z,101009.22
2023-04-22T21:23:06.762Z,101008.47
2023-04-22T21:28:09.434Z,100999.91
2023-04-22T21:33:07.975Z,100996.78
2023-04-22T21:38:09.051Z,100994.63
2023-04-22T21:43:09.379Z,101008.03
2023-04-22T21:48:10.301Z,100998.00
2023-04-22T21:53:09.105Z,101007.94
2023-04-22T21:58:10.430Z,100999.06
2023-04-22T22:03:09.374Z,101002.31
2023-04-22T22:08:08.644Z,101008.59
2023-04-22T22:13:08.907Z,101001.84
2023-04-22T22:18:07.895Z,101001.22
2023-04-22T22:23:07.059Z,100994.53
2023-04-22T22:28:05.945Z,100991.25
2023-04-22T22:33:06.403Z,100985.78
2023-04-22T22:38:05.387Z,100991.41
2023-04-22T22:43:04.149Z,100985.47
2023-04-22T22:48:03.147Z,100984.22
2023-04-22T22:53:03.259Z,100981.94
2023-04-22T22:58:02.011Z,100981.28
2023-04-22T23:03:01.009Z,100983.78
2023-04-22T23:08:00.039Z,100995.41
2023-04-22T23:13:00.144Z,100994.69
2023-04-22T23:17:58.951Z,100987.97
2023-04-22T23:22:58.793Z,100986.81
2023-04-22T23:27:59.565Z,100993.28
2023-04-22T23:33:01.411Z,100979.47
2023-04-22T23:38:02.442Z,100982.25
2023-04-22T23:43:02.792Z,100986.19
2023-04-22T23:48:01.582Z,100983.31
2023-04-22T23:53:00.385Z,100986.81
2023-04-22T23:57:59.520Z,100979.78
